Time;durP1;ratioP1;P1;durP2;ratioP2;P2;SDS_P1;SDS_P2;PMS_P1;PMS_P2;Temp;Humidity;BMP_temperature;BMP_pressure;BME280_temperature;BME280_humidity;BME280_pressure;Samples;Min_cycle;Max_cycle;Signal;HPM_P1;HPM_P2
2023/08/14 00:00:32;;;;;;;0.03;0.03;;;;;;;19.43;60.73;100152.00;7354144;19;20010;-57
2023/08/14 00:02:58;;;;;;;0.00;0.00;;;;;;;19.40;61.25;100149.56;7355345;19;20021;-54
2023/08/14 00:05:23;;;;;;;0.10;0.10;;;;;;;19.38;61.33;100151.47;7355502;19;22044;-55
2023/08/14 00:07:49;;;;;;;0.00;0.00;;;;;;;19.36;61.38;100150.75;7355550;19;20022;-54
2023/08/14 00:10:14;;;;;;;0.10;0.10;;;;;;;19.35;61.75;100159.63;7356038;19;20018;-57
2023/08/14 00:12:40;;;;;;;0.10;0.10;;;;;;;19.32;61.57;100159.00;7355641;19;20017;-55
2023/08/14 00:15:06;;;;;;;0.03;0.03;;;;;;;19.22;61.90;100148.19;7354326;19;20014;-57
2023/08/14 00:17:31;;;;;;;0.10;0.10;;;;;;;19.30;61.67;100153.78;7353622;19;20164;-56
2023/08/14 00:19:57;;;;;;;0.10;0.10;;;;;;;19.27;61.80;100151.38;7355129;19;20367;-57
2023/08/14 00:22:22;;;;;;;0.10;0.10;;;;;;;19.26;61.81;100144.38;7354636;19;20014;-56
2023/08/14 00:24:47;;;;;;;0.00;0.00;;;;;;;19.24;61.54;100151.56;7354608;19;20029;-56
2023/08/14 00:27:13;;;;;;;0.00;0.00;;;;;;;19.23;61.72;100155.16;7354178;19;20025;-56
2023/08/14 00:29:38;;;;;;;0.00;0.00;;;;;;;19.20;62.00;100152.72;7354118;19;20014;-56
2023/08/14 00:32:04;;;;;;;0.00;0.00;;;;;;;19.17;61.74;100134.41;7352140;19;20010;-55
2023/08/14 00:34:29;;;;;;;0.00;0.00;;;;;;;19.16;61.20;100133.56;7350290;19;20102;-56
2023/08/14 00:36:54;;;;;;;0.10;0.10;;;;;;;19.15;61.78;100136.28;7356352;19;20018;-56
2023/08/14 00:39:20;;;;;;;0.00;0.00;;;;;;;19.14;61.68;100139.91;7355236;19;20018;-56
2023/08/14 00:41:45;;;;;;;0.08;0.08;;;;;;;19.12;61.56;100134.72;7356181;19;20789;-56
2023/08/14 00:44:11;;;;;;;0.05;0.05;;;;;;;19.10;61.84;100122.53;7353756;19;20115;-55
2023/08/14 00:46:36;;;;;;;0.10;0.10;;;;;;;19.08;61.29;100124.44;7351234;19;20759;-56
2023/08/14 00:49:02;;;;;;;0.00;0.00;;;;;;;19.05;61.15;100117.53;7355391;19;20013;-56
2023/08/14 00:51:27;;;;;;;0.00;0.00;;;;;;;19.04;61.25;100120.28;7353221;19;20424;-56
2023/08/14 00:53:54;;;;;;;0.00;0.00;;;;;;;18.97;61.43;100117.22;7352476;19;20964;-56
2023/08/14 00:56:21;;;;;;;0.00;0.00;;;;;;;18.97;61.55;100119.88;7350842;19;20123;-55
2023/08/14 00:58:47;;;;;;;0.10;0.10;;;;;;;18.98;61.69;100128.66;7353042;19;20124;-56
2023/08/14 01:01:13;;;;;;;0.10;0.10;;;;;;;18.93;62.13;100121.84;7355324;19;20018;-57
2023/08/14 01:03:39;;;;;;;0.10;0.10;;;;;;;18.91;61.92;100123.78;7348556;19;20425;-56
2023/08/14 01:06:04;;;;;;;0.10;0.10;;;;;;;18.87;62.11;100116.97;7354869;19;20011;-55
2023/08/14 01:08:31;;;;;;;0.00;0.00;;;;;;;18.85;62.14;100124.16;7352066;19;20513;-57
2023/08/14 01:11:07;;;;;;;0.10;0.10;;;;;;;18.84;61.52;100117.16;7356247;19;21027;-55
2023/08/14 01:13:56;;;;;;;0.00;0.00;;;;;;;18.78;62.03;100112.28;7352596;19;20475;-56
2023/08/14 01:16:27;;;;;;;0.10;0.10;;;;;;;18.77;61.50;100117.69;7353953;19;20581;-57
2023/08/14 01:18:55;;;;;;;0.00;0.00;;;;;;;18.73;62.09;100121.47;7352156;19;20020;-56
2023/08/14 01:21:39;;;;;;;0.00;0.00;;;;;;;18.71;60.67;100120.75;7353724;19;20010;-55
2023/08/14 01:24:32;;;;;;;0.00;0.00;;;;;;;18.67;61.08;100120.06;7350787;19;20006;-57
2023/08/14 01:26:58;;;;;;;0.10;0.10;;;;;;;18.47;61.65;100097.56;7250608;19;2004456;-57
2023/08/14 01:29:24;;;;;;;0.10;0.10;;;;;;;18.50;61.61;100107.94;7350608;19;20014;-57
2023/08/14 01:31:49;;;;;;;0.10;0.10;;;;;;;18.53;61.55;100109.53;7353867;19;20482;-56
2023/08/14 01:34:15;;;;;;;0.10;0.10;;;;;;;18.50;61.98;100112.34;7353443;19;20011;-56
2023/08/14 01:36:54;;;;;;;0.10;0.10;;;;;;;18.47;61.38;100104.66;7355347;19;20010;-57
2023/08/14 01:39:28;;;;;;;0.03;0.03;;;;;;;18.36;61.54;100089.47;7350566;19;20014;-57
2023/08/14 01:42:14;;;;;;;0.00;0.00;;;;;;;18.42;61.33;100111.06;7355241;19;20094;-55
2023/08/14 01:44:44;;;;;;;0.00;0.00;;;;;;;18.28;61.47;100087.31;7349859;19;20009;-56
2023/08/14 01:47:12;;;;;;;0.10;0.10;;;;;;;18.35;61.68;100099.22;7353448;19;20027;-56
2023/08/14 01:49:39;;;;;;;0.00;0.00;;;;;;;18.32;61.86;100099.41;7353343;19;20070;-56
2023/08/14 01:52:05;;;;;;;0.00;0.00;;;;;;;18.26;61.84;100094.50;7354124;19;20827;-55
2023/08/14 01:54:31;;;;;;;0.10;0.10;;;;;;;18.28;61.90;100097.88;7348760;19;20007;-57
2023/08/14 01:56:56;;;;;;;0.00;0.00;;;;;;;18.25;61.65;100092.81;7350526;19;20781;-56
2023/08/14 01:59:34;;;;;;;0.10;0.10;;;;;;;18.27;61.61;100096.19;7350687;19;20011;-56
2023/08/14 02:01:59;;;;;;;0.00;0.00;;;;;;;18.24;61.94;100100.81;7355415;19;20375;-57
2023/08/14 02:04:25;;;;;;;0.03;0.03;;;;;;;18.21;61.73;100091.31;7355939;19;20018;-56
2023/08/14 02:06:50;;;;;;;0.00;0.00;;;;;;;18.21;61.74;100086.03;7354059;19;20018;-56
2023/08/14 02:09:16;;;;;;;0.00;0.00;;;;;;;18.20;61.85;100089.63;7355951;19;20010;-55
2023/08/14 02:11:41;;;;;;;0.05;0.05;;;;;;;18.18;61.84;100091.50;7356230;19;20025;-56
2023/08/14 02:14:06;;;;;;;0.10;0.10;;;;;;;18.19;62.12;100087.06;7354070;19;20610;-57
2023/08/14 02:16:32;;;;;;;0.10;0.10;;;;;;;18.17;62.28;100081.88;7353779;19;20038;-55
2023/08/14 02:18:57;;;;;;;0.00;0.00;;;;;;;18.15;61.87;100070.56;7351923;19;20015;-56
2023/08/14 02:21:23;;;;;;;0.00;0.00;;;;;;;18.15;61.89;100076.69;7356821;19;20010;-56
2023/08/14 02:23:50;;;;;;;0.00;0.00;;;;;;;18.14;62.34;100071.50;7355223;19;20107;-55
2023/08/14 02:26:15;;;;;;;0.10;0.10;;;;;;;18.13;62.19;100062.72;7348036;19;20019;-57
2023/08/14 02:28:41;;;;;;;0.10;0.10;;;;;;;18.12;62.46;100062.84;7348088;19;20030;-57
2023/08/14 02:31:06;;;;;;;0.10;0.10;;;;;;;18.12;62.39;100065.47;7354405;19;20022;-54
2023/08/14 02:33:31;;;;;;;0.10;0.10;;;;;;;18.10;62.05;100067.38;7354029;19;20021;-57
2023/08/14 02:35:57;;;;;;;0.03;0.03;;;;;;;18.09;62.42;100068.28;7355698;19;20386;-55
2023/08/14 02:38:22;;;;;;;0.05;0.05;;;;;;;18.07;62.30;100062.28;7354588;19;20021;-55
2023/08/14 02:40:48;;;;;;;0.08;0.08;;;;;;;18.08;62.45;100069.25;7355337;19;20014;-56
2023/08/14 02:43:13;;;;;;;0.00;0.00;;;;;;;18.06;61.96;100061.44;7349571;19;20011;-55
2023/08/14 02:45:38;;;;;;;0.03;0.03;;;;;;;18.07;62.21;100057.00;7354324;19;20015;-57
2023/08/14 02:48:04;;;;;;;0.00;0.00;;;;;;;18.06;62.15;100057.94;7352726;19;20022;-54
2023/08/14 02:50:29;;;;;;;0.00;0.00;;;;;;;18.03;61.85;100052.84;7352009;19;20005;-54
2023/08/14 02:52:55;;;;;;;0.00;0.00;;;;;;;17.92;61.77;100039.47;7354344;19;20081;-57
2023/08/14 02:55:20;;;;;;;0.10;0.10;;;;;;;18.04;62.05;100059.81;7355211;19;20031;-56
2023/08/14 02:57:46;;;;;;;0.10;0.10;;;;;;;18.00;61.52;100051.25;7352529;19;20010;-56
2023/08/14 03:00:11;;;;;;;0.00;0.00;;;;;;;18.00;61.85;100051.25;7350770;19;20716;-56
2023/08/14 03:02:37;;;;;;;0.10;0.10;;;;;;;17.97;61.52;100037.38;7354531;19;20088;-56
2023/08/14 03:05:03;;;;;;;0.03;0.03;;;;;;;17.98;61.89;100036.44;7352798;19;20014;-57
2023/08/14 03:07:28;;;;;;;0.03;0.03;;;;;;;17.98;62.45;100041.72;7354955;19;20010;-56
2023/08/14 03:09:53;;;;;;;0.10;0.10;;;;;;;17.96;62.55;100044.47;7357430;19;20048;-57
2023/08/14 03:12:19;;;;;;;0.10;0.10;;;;;;;17.95;62.44;100041.94;7358491;19;20018;-55
2023/08/14 03:14:44;;;;;;;0.00;0.00;;;;;;;17.93;62.37;100033.25;7358302;19;20026;-56
2023/08/14 03:17:10;;;;;;;0.00;0.00;;;;;;;17.93;62.56;100036.72;7359114;19;20006;-55
2023/08/14 03:19:36;;;;;;;0.10;0.10;;;;;;;17.94;62.73;100029.66;7336631;19;20366;-56
2023/08/14 03:22:01;;;;;;;0.00;0.00;;;;;;;17.92;62.80;100027.13;7356913;19;20006;-57
2023/08/14 03:24:26;;;;;;;0.08;0.08;;;;;;;17.92;62.22;100023.63;7358390;19;20014;-56
2023/08/14 03:26:52;;;;;;;0.00;0.00;;;;;;;17.92;62.20;100023.63;7363881;19;20015;-54
2023/08/14 03:29:17;;;;;;;0.10;0.10;;;;;;;17.91;62.25;100028.06;7362013;19;20015;-56
2023/08/14 03:31:43;;;;;;;0.05;0.05;;;;;;;17.90;62.48;100031.66;7356477;19;20007;-55
2023/08/14 03:34:09;;;;;;;0.10;0.10;;;;;;;17.89;62.27;100022.00;7361043;19;20097;-56
2023/08/14 03:36:34;;;;;;;0.00;0.00;;;;;;;17.88;62.76;100015.88;7361463;19;20007;-55
2023/08/14 03:39:00;;;;;;;0.10;0.10;;;;;;;17.88;62.63;100015.03;7362393;19;20565;-56
2023/08/14 03:41:25;;;;;;;0.00;0.00;;;;;;;17.87;62.47;100014.19;7360097;19;20384;-57
2023/08/14 03:43:51;;;;;;;0.10;0.10;;;;;;;17.86;62.51;100001.09;7361297;19;20110;-56
2023/08/14 03:46:16;;;;;;;0.10;0.10;;;;;;;17.85;62.86;100010.81;7359236;19;20018;-56
2023/08/14 03:48:41;;;;;;;0.10;0.10;;;;;;;17.84;62.63;100002.97;7361394;19;20096;-55
2023/08/14 03:51:07;;;;;;;0.10;0.10;;;;;;;17.84;63.03;100009.13;7357650;19;20026;-54
2023/08/14 03:53:33;;;;;;;0.10;0.10;;;;;;;17.79;62.79;100003.28;7360327;19;20050;-52
2023/08/14 03:55:59;;;;;;;0.10;0.10;;;;;;;17.80;62.34;100012.06;7361366;19;20074;-57
2023/08/14 03:58:24;;;;;;;0.05;0.05;;;;;;;17.81;61.51;100014.59;7355455;19;20014;-55
2023/08/14 04:00:49;;;;;;;0.10;0.10;;;;;;;17.80;62.03;100018.19;7359412;19;20785;-54
2023/08/14 04:03:15;;;;;;;0.00;0.00;;;;;;;17.77;62.31;100018.38;7360382;19;20042;-56
2023/08/14 04:05:41;;;;;;;0.00;0.00;;;;;;;17.77;62.30;100018.38;7359618;19;20025;-57
2023/08/14 04:08:07;;;;;;;0.08;0.08;;;;;;;17.77;62.66;100018.38;7361238;19;20020;-56
2023/08/14 04:10:33;;;;;;;0.00;0.00;;;;;;;17.76;62.67;100015.84;7357949;19;20010;-56
2023/08/14 04:12:59;;;;;;;0.00;0.00;;;;;;;17.74;63.11;100008.03;7357746;19;20006;-56
2023/08/14 04:15:25;;;;;;;0.03;0.03;;;;;;;17.72;63.11;100009.00;7358677;19;20465;-57
2023/08/14 04:17:50;;;;;;;0.10;0.10;;;;;;;17.73;62.98;100006.31;7359737;19;20038;-57
2023/08/14 04:20:16;;;;;;;0.00;0.00;;;;;;;17.74;63.09;100002.75;7356702;19;20017;-54
2023/08/14 04:22:41;;;;;;;0.00;0.00;;;;;;;17.74;63.00;100005.38;7361867;19;20015;-56
2023/08/14 04:25:07;;;;;;;0.00;0.00;;;;;;;17.74;63.13;100008.03;7356137;19;20011;-57
2023/08/14 04:27:35;;;;;;;0.10;0.10;;;;;;;17.75;63.45;100006.22;7357797;19;20033;-56
2023/08/14 04:30:00;;;;;;;0.10;0.10;;;;;;;17.73;63.10;100001.03;7353542;19;20741;-55
2023/08/14 04:32:26;;;;;;;0.00;0.00;;;;;;;17.76;63.38;100002.63;7360065;19;20017;-56
2023/08/14 04:34:51;;;;;;;0.00;0.00;;;;;;;17.77;63.09;100002.53;7358073;19;20030;-56
2023/08/14 04:37:17;;;;;;;0.00;0.00;;;;;;;17.76;63.25;99986.78;7358773;19;20021;-55
2023/08/14 04:39:42;;;;;;;0.10;0.10;;;;;;;17.75;63.35;99985.94;7356910;19;20038;-57
2023/08/14 04:42:07;;;;;;;0.10;0.10;;;;;;;17.75;63.45;99988.59;7356765;19;20027;-57
2023/08/14 04:44:33;;;;;;;0.10;0.10;;;;;;;17.74;63.19;99994.81;7358792;19;20352;-56
2023/08/14 04:46:58;;;;;;;0.10;0.10;;;;;;;17.70;63.22;99985.34;7358869;19;20011;-56
2023/08/14 04:49:24;;;;;;;0.00;0.00;;;;;;;17.73;63.07;99994.88;7359937;19;20026;-56
2023/08/14 04:51:49;;;;;;;0.10;0.10;;;;;;;17.72;63.52;99994.00;7357119;19;20017;-55
2023/08/14 04:54:15;;;;;;;0.08;0.08;;;;;;;17.70;63.28;99988.00;7357198;19;20011;-56
2023/08/14 04:56:40;;;;;;;0.05;0.05;;;;;;;17.68;63.09;99981.94;7353923;19;20014;-56
2023/08/14 04:59:06;;;;;;;0.00;0.00;;;;;;;17.70;62.77;99985.34;7359032;19;20318;-56
2023/08/14 05:01:31;;;;;;;0.10;0.10;;;;;;;17.59;63.26;99979.91;7356600;19;20007;-57
2023/08/14 05:03:57;;;;;;;0.00;0.00;;;;;;;17.67;62.99;99982.91;7358624;19;20019;-55
2023/08/14 05:06:22;;;;;;;0.00;0.00;;;;;;;17.67;63.00;99989.97;7353445;19;20022;-56
2023/08/14 05:08:48;;;;;;;0.10;0.10;;;;;;;17.66;62.48;99989.13;7357859;19;20030;-53
2023/08/14 05:11:13;;;;;;;0.10;0.10;;;;;;;17.63;62.77;99987.50;7359433;19;20015;-57
2023/08/14 05:13:44;;;;;;;0.00;0.00;;;;;;;17.61;62.28;99985.94;7358880;19;20018;-56
2023/08/14 05:16:09;;;;;;;0.00;0.00;;;;;;;17.62;62.73;99987.63;7357945;19;20010;-56
2023/08/14 05:18:35;;;;;;;0.05;0.05;;;;;;;17.61;62.52;99980.66;7356388;19;20789;-56
2023/08/14 05:21:00;;;;;;;0.10;0.10;;;;;;;17.59;62.60;99979.91;7357062;19;20482;-56
2023/08/14 05:23:26;;;;;;;0.00;0.00;;;;;;;17.58;62.52;99975.56;7360477;19;20010;-56
2023/08/14 05:25:51;;;;;;;0.00;0.00;;;;;;;17.56;62.31;99978.31;7356190;19;20013;-56
2023/08/14 05:28:16;;;;;;;0.10;0.10;;;;;;;17.55;62.52;99967.84;7357852;19;20010;-57
2023/08/14 05:30:44;;;;;;;0.05;0.05;;;;;;;17.55;62.98;99970.50;7355118;19;20014;-56
2023/08/14 05:33:09;;;;;;;0.00;0.00;;;;;;;17.47;62.99;99964.84;7356705;19;21321;-54
2023/08/14 05:35:35;;;;;;;0.00;0.00;;;;;;;17.52;63.12;99975.94;7356967;19;20856;-56
2023/08/14 05:38:00;;;;;;;0.00;0.00;;;;;;;17.50;62.77;99975.22;7357082;19;20031;-55
2023/08/14 05:40:27;;;;;;;0.10;0.10;;;;;;;17.51;63.06;99975.09;7357839;19;20428;-55
2023/08/14 05:43:09;;;;;;;0.10;0.10;;;;;;;17.54;61.85;99979.34;7355827;19;20006;-57
2023/08/14 05:45:41;;;;;;;0.10;0.10;;;;;;;17.53;62.71;99982.91;7354594;19;20002;-57
2023/08/14 05:48:07;;;;;;;0.10;0.10;;;;;;;17.48;63.23;99979.72;7355592;19;20094;-56
2023/08/14 05:50:33;;;;;;;0.10;0.10;;;;;;;17.51;63.06;99985.66;7358476;19;20040;-55
2023/08/14 05:53:03;;;;;;;0.10;0.10;;;;;;;17.49;62.98;99978.81;7354871;19;20026;-56
2023/08/14 05:55:30;;;;;;;0.00;0.00;;;;;;;17.51;62.56;99975.09;7358842;19;20041;-56
2023/08/14 05:57:56;;;;;;;0.10;0.10;;;;;;;17.52;62.40;99976.78;7349380;19;20804;-55
2023/08/14 06:00:22;;;;;;;0.00;0.00;;;;;;;17.44;62.66;99963.25;7355335;19;20025;-54
2023/08/14 06:02:47;;;;;;;0.00;0.00;;;;;;;17.52;62.71;99981.22;7356899;19;20813;-55
2023/08/14 06:05:13;;;;;;;0.00;0.00;;;;;;;17.52;62.42;99987.34;7354224;19;20041;-56
2023/08/14 06:07:38;;;;;;;0.00;0.00;;;;;;;17.53;62.68;99993.47;7356122;19;20037;-56
2023/08/14 06:10:05;;;;;;;0.00;0.00;;;;;;;17.50;62.65;99980.50;7351434;19;20013;-57
2023/08/14 06:12:31;;;;;;;0.08;0.08;;;;;;;17.54;63.01;99980.19;7356751;19;20581;-54
2023/08/14 06:14:57;;;;;;;0.10;0.10;;;;;;;17.54;62.49;99982.84;7353806;19;20046;-55
2023/08/14 06:17:22;;;;;;;0.00;0.00;;;;;;;17.55;62.79;99986.31;7358817;19;20002;-55
2023/08/14 06:19:48;;;;;;;0.10;0.10;;;;;;;17.56;62.90;99982.75;7351551;19;20010;-56
2023/08/14 06:22:13;;;;;;;0.10;0.10;;;;;;;17.57;63.00;99989.72;7351488;19;20014;-56
2023/08/14 06:24:38;;;;;;;0.00;0.00;;;;;;;17.58;63.14;99994.03;7353041;19;20015;-57
2023/08/14 06:27:04;;;;;;;0.10;0.10;;;;;;;17.59;63.57;99991.31;7356525;19;20050;-57
2023/08/14 06:29:30;;;;;;;0.00;0.00;;;;;;;17.61;63.32;99999.13;7351413;19;20021;-56
2023/08/14 06:31:57;;;;;;;0.10;0.10;;;;;;;17.64;63.05;99997.16;7355616;19;20621;-55
2023/08/14 06:34:23;;;;;;;0.10;0.10;;;;;;;17.54;63.20;99972.28;7354248;19;20887;-57
2023/08/14 06:36:48;;;;;;;0.10;0.10;;;;;;;17.63;63.30;99992.78;7355700;19;20038;-57
2023/08/14 06:39:13;;;;;;;0.00;0.00;;;;;;;17.72;63.11;100003.72;7353767;19;20014;-56
2023/08/14 06:41:39;;;;;;;0.05;0.05;;;;;;;17.68;63.15;99997.78;7350904;19;20014;-57
2023/08/14 06:44:11;;;;;;;0.10;0.10;;;;;;;17.79;63.36;100008.56;7327283;19;20021;-57
2023/08/14 06:46:36;;;;;;;0.08;0.08;;;;;;;17.75;63.46;99998.31;7355478;19;20010;-56
2023/08/14 06:49:02;;;;;;;0.10;0.10;;;;;;;17.82;63.39;100000.44;7354564;19;20014;-57
2023/08/14 06:51:27;;;;;;;0.10;0.10;;;;;;;17.82;63.49;100003.06;7352178;19;20441;-55
2023/08/14 06:53:53;;;;;;;0.10;0.10;;;;;;;17.88;63.19;100009.75;7351682;19;20022;-57
2023/08/14 06:56:19;;;;;;;0.10;0.10;;;;;;;17.77;63.41;99988.47;7353666;19;20030;-56
2023/08/14 06:58:44;;;;;;;0.10;0.10;;;;;;;17.95;62.83;100000.50;7351136;19;20738;-57
2023/08/14 07:01:09;;;;;;;0.10;0.10;;;;;;;17.98;63.06;100004.75;7352174;19;20014;-56
2023/08/14 07:03:35;;;;;;;0.00;0.00;;;;;;;18.01;62.59;99999.28;7349314;19;20022;-56
2023/08/14 07:06:00;;;;;;;0.00;0.00;;;;;;;18.04;62.89;100005.19;7350947;19;20716;-56
2023/08/14 07:08:28;;;;;;;0.10;0.10;;;;;;;18.10;63.09;100001.31;7353414;19;20606;-55
2023/08/14 07:10:53;;;;;;;;;;;;;;;18.18;61.56;100004.28;7353239;19;20758;-57
2023/08/14 07:13:19;;;;;;;0.05;0.05;;;;;;;18.14;62.55;100001.00;7355152;19;20002;-56
2023/08/14 07:15:47;;;;;;;0.10;0.10;;;;;;;18.19;62.76;100008.63;7355395;19;20805;-55
2023/08/14 07:18:14;;;;;;;0.10;0.10;;;;;;;18.22;63.07;100008.44;7354393;19;20023;-54
2023/08/14 07:20:39;;;;;;;0.10;0.10;;;;;;;18.26;62.61;100019.66;7351135;19;20042;-56
2023/08/14 07:23:05;;;;;;;0.08;0.08;;;;;;;18.28;62.75;100015.97;7352992;19;20018;-56
2023/08/14 07:25:31;;;;;;;0.10;0.10;;;;;;;18.32;63.08;100009.53;7353395;19;20666;-56
2023/08/14 07:27:56;;;;;;;0.10;0.10;;;;;;;18.36;62.76;100021.59;7352624;19;20011;-54
2023/08/14 07:30:22;;;;;;;0.10;0.10;;;;;;;18.34;62.88;100007.63;7353242;19;20086;-56
2023/08/14 07:32:48;;;;;;;0.10;0.10;;;;;;;18.40;62.50;100015.16;7348018;19;20031;-55
2023/08/14 07:35:14;;;;;;;0.00;0.00;;;;;;;18.39;62.80;100000.22;7353251;19;20006;-56
2023/08/14 07:37:39;;;;;;;0.00;0.00;;;;;;;18.49;62.82;100010.19;7352243;19;20033;-55
2023/08/14 07:40:06;;;;;;;0.10;0.10;;;;;;;18.53;62.49;100011.69;7350893;19;20010;-56
2023/08/14 07:42:32;;;;;;;0.10;0.10;;;;;;;18.56;62.65;100012.34;7350760;19;20774;-58
2023/08/14 07:44:57;;;;;;;0.00;0.00;;;;;;;18.60;62.59;100012.97;7351144;19;20018;-57
2023/08/14 07:47:23;;;;;;;0.10;0.10;;;;;;;18.63;63.00;100015.41;7351328;19;20028;-57
2023/08/14 07:49:48;;;;;;;0.00;0.00;;;;;;;18.65;62.58;100011.75;7354178;19;20010;-56
2023/08/14 07:52:14;;;;;;;0.08;0.08;;;;;;;18.71;62.94;100014.94;7337817;19;20026;-56
2023/08/14 07:54:39;;;;;;;0.00;0.00;;;;;;;18.73;62.65;100013.88;7352015;19;20014;-55
2023/08/14 07:57:04;;;;;;;0.10;0.10;;;;;;;18.77;62.50;100020.66;7353269;19;20617;-57
2023/08/14 07:59:30;;;;;;;0.03;0.03;;;;;;;18.80;62.56;100025.72;7355271;19;20010;-56
2023/08/14 08:01:55;;;;;;;0.10;0.10;;;;;;;18.84;63.00;100024.56;7358006;19;20593;-55
2023/08/14 08:04:21;;;;;;;0.10;0.10;;;;;;;18.88;62.58;100020.78;7355594;19;20069;-56
2023/08/14 08:06:46;;;;;;;0.10;0.10;;;;;;;18.91;62.58;100017.09;7351919;19;20173;-54
2023/08/14 08:09:14;;;;;;;0.10;0.10;;;;;;;18.99;62.61;100024.50;7350442;19;20048;-56
2023/08/14 08:11:40;;;;;;;0.05;0.05;;;;;;;19.04;62.52;100022.38;7355164;19;20015;-55
2023/08/14 08:14:06;;;;;;;0.05;0.05;;;;;;;19.09;62.29;100020.25;7353456;19;20017;-57
2023/08/14 08:16:34;;;;;;;0.00;0.00;;;;;;;19.14;62.41;100023.44;7352375;19;20006;-56
2023/08/14 08:19:04;;;;;;;0.10;0.10;;;;;;;19.22;62.24;100023.78;7356781;19;20010;-57
2023/08/14 08:21:29;;;;;;;0.10;0.10;;;;;;;19.24;62.21;100024.50;7354008;19;20696;-57
2023/08/14 08:23:55;;;;;;;0.10;0.10;;;;;;;19.30;62.11;100029.34;7356854;19;20006;-56
2023/08/14 08:26:20;;;;;;;0.08;0.08;;;;;;;19.34;62.40;100030.00;7356253;19;20628;-57
2023/08/14 08:28:47;;;;;;;0.10;0.10;;;;;;;19.37;62.18;100030.66;7353597;19;20101;-57
2023/08/14 08:31:13;;;;;;;0.10;0.10;;;;;;;19.42;62.01;100033.81;7357008;19;20030;-56
2023/08/14 08:33:38;;;;;;;0.10;0.10;;;;;;;19.42;61.86;100028.53;7357362;19;21361;-57
2023/08/14 08:36:04;;;;;;;0.00;0.00;;;;;;;19.51;62.13;100026.16;7357635;19;20010;-56
2023/08/14 08:38:29;;;;;;;0.03;0.03;;;;;;;19.55;61.81;100027.66;7358770;19;20018;-55
2023/08/14 08:40:55;;;;;;;0.10;0.10;;;;;;;19.55;61.67;100028.50;7358351;19;20021;-56
2023/08/14 08:43:22;;;;;;;0.10;0.10;;;;;;;19.67;61.77;100037.41;7356073;19;20645;-57
2023/08/14 08:45:50;;;;;;;0.10;0.10;;;;;;;19.72;61.50;100037.06;7356852;19;20025;-56
2023/08/14 08:48:22;;;;;;;0.08;0.08;;;;;;;19.79;61.54;100044.47;7355282;19;20014;-57
2023/08/14 08:50:49;;;;;;;0.10;0.10;;;;;;;19.80;61.37;100043.53;7349168;19;20605;-54
2023/08/14 08:53:15;;;;;;;;;;;;;;;19.92;60.85;100042.66;7359062;19;20755;-55
2023/08/14 08:55:41;;;;;;;0.03;0.03;;;;;;;19.89;61.72;100042.88;7356021;19;19918;-56
2023/08/14 08:58:07;;;;;;;0.03;0.03;;;;;;;19.87;61.34;100031.53;7357929;19;20014;-56
2023/08/14 09:00:32;;;;;;;0.10;0.10;;;;;;;19.98;61.29;100040.53;7346469;19;20015;-57
2023/08/14 09:02:58;;;;;;;0.10;0.10;;;;;;;20.02;61.31;100036.66;7349199;19;20019;-55
2023/08/14 09:05:24;;;;;;;0.00;0.00;;;;;;;20.07;60.98;100039.81;7357485;19;20011;-56
2023/08/14 09:07:49;;;;;;;0.10;0.10;;;;;;;20.11;61.14;100036.00;7356073;19;20813;-56
2023/08/14 09:10:15;;;;;;;0.10;0.10;;;;;;;20.17;60.89;100046.16;7354997;19;20015;-55
2023/08/14 09:12:41;;;;;;;0.10;0.10;;;;;;;20.26;60.92;100044.63;7356662;19;20343;-55
2023/08/14 09:15:08;;;;;;;0.00;0.00;;;;;;;20.36;61.36;100053.63;7355192;19;20021;-56
2023/08/14 09:17:33;;;;;;;0.10;0.10;;;;;;;20.44;61.24;100051.25;7356217;19;20034;-56
2023/08/14 09:19:59;;;;;;;0.03;0.03;;;;;;;20.55;61.04;100053.97;7355075;19;20399;-57
2023/08/14 09:22:28;;;;;;;0.10;0.10;;;;;;;20.66;60.46;100042.56;7356239;19;20018;-57
2023/08/14 09:24:55;;;;;;;0.00;0.00;;;;;;;20.81;60.73;100045.88;7355721;19;20027;-56
2023/08/14 09:27:22;;;;;;;0.10;0.10;;;;;;;20.91;60.12;100052.16;7353684;19;20023;-56
2023/08/14 09:29:51;;;;;;;0.00;0.00;;;;;;;21.03;60.18;100045.06;7354429;19;20035;-57
2023/08/14 09:32:16;;;;;;;0.10;0.10;;;;;;;21.16;59.68;100045.84;7356632;19;20025;-55
2023/08/14 09:34:41;;;;;;;0.10;0.10;;;;;;;21.29;59.74;100040.41;7355384;19;20022;-57
2023/08/14 09:37:07;;;;;;;0.10;0.10;;;;;;;21.34;58.89;100035.59;7357192;19;20024;-56
2023/08/14 09:39:32;;;;;;;0.00;0.00;;;;;;;21.56;58.74;100042.75;7357767;19;20872;-57
2023/08/14 09:41:59;;;;;;;0.03;0.03;;;;;;;21.64;58.67;100035.00;7358923;19;20677;-55
2023/08/14 09:44:25;;;;;;;0.10;0.10;;;;;;;21.88;58.55;100058.78;7354861;19;20014;-56
2023/08/14 09:46:54;;;;;;;0.00;0.00;;;;;;;22.05;58.11;100052.09;7358486;19;20021;-57
2023/08/14 09:49:20;;;;;;;0.00;0.00;;;;;;;22.22;58.06;100056.94;7352928;19;20035;-55
2023/08/14 09:51:56;;;;;;;0.10;0.10;;;;;;;22.48;58.30;100052.16;7357277;19;20006;-57
2023/08/14 09:54:34;;;;;;;0.00;0.00;;;;;;;22.68;57.47;100058.47;7352795;19;20376;-56
2023/08/14 09:57:03;;;;;;;0.10;0.10;;;;;;;22.77;56.51;100047.91;7353159;19;20045;-56
2023/08/14 09:59:28;;;;;;;0.00;0.00;;;;;;;22.94;56.31;100054.50;7354592;19;20022;-57
2023/08/14 10:01:57;;;;;;;0.00;0.00;;;;;;;23.12;55.63;100052.09;7352981;19;20125;-57
2023/08/14 10:04:23;;;;;;;0.10;0.10;;;;;;;23.34;55.46;100061.75;7353986;19;20097;-55
2023/08/14 10:06:51;;;;;;;0.10;0.10;;;;;;;23.62;55.49;100059.34;7354087;19;20010;-57
2023/08/14 10:09:22;;;;;;;0.10;0.10;;;;;;;23.91;55.57;100063.00;7355206;19;20887;-57
2023/08/14 10:11:48;;;;;;;0.10;0.10;;;;;;;24.12;54.56;100059.38;7355610;19;20010;-56
2023/08/14 10:14:16;;;;;;;0.00;0.00;;;;;;;24.33;54.99;100042.31;7351645;19;20746;-56
2023/08/14 10:16:43;;;;;;;0.00;0.00;;;;;;;24.65;53.59;100059.06;7351508;19;21791;-57
2023/08/14 10:19:12;;;;;;;0.10;0.10;;;;;;;24.94;53.45;100054.56;7355641;19;20034;-54
2023/08/14 10:21:40;;;;;;;0.00;0.00;;;;;;;25.16;52.86;100052.56;7352011;19;20018;-55
2023/08/14 10:24:07;;;;;;;0.10;0.10;;;;;;;25.41;53.11;100056.44;7353691;19;20731;-56
2023/08/14 10:26:33;;;;;;;0.10;0.10;;;;;;;25.61;52.17;100053.53;7353676;19;20038;-56
2023/08/14 10:29:00;;;;;;;0.00;0.00;;;;;;;25.81;51.58;100054.31;7350580;19;20042;-56
2023/08/14 10:31:27;;;;;;;0.10;0.10;;;;;;;26.02;51.35;100056.75;7357177;19;20039;-57
2023/08/14 10:33:54;;;;;;;0.10;0.10;;;;;;;26.12;50.85;100052.16;7355692;19;20038;-57
2023/08/14 10:36:20;;;;;;;0.00;0.00;;;;;;;26.31;51.03;100051.22;7354576;19;20765;-56
2023/08/14 10:38:46;;;;;;;0.00;0.00;;;;;;;26.54;50.95;100046.25;7357304;19;20083;-55
2023/08/14 10:41:16;;;;;;;0.00;0.00;;;;;;;26.87;49.95;100047.38;7353562;19;20022;-55
2023/08/14 10:43:42;;;;;;;0.00;0.00;;;;;;;27.10;49.08;100047.72;7354424;19;20010;-56
2023/08/14 10:46:14;;;;;;;0.00;0.00;;;;;;;27.51;49.54;100045.28;7355603;19;20344;-56
2023/08/14 10:48:41;;;;;;;0.00;0.00;;;;;;;27.67;48.78;100045.34;7355216;19;20105;-55
2023/08/14 10:51:12;;;;;;;0.00;0.00;;;;;;;27.87;46.96;100055.88;7353291;19;20007;-56
2023/08/14 10:53:40;;;;;;;0.08;0.08;;;;;;;28.10;46.77;100056.13;7353521;19;20743;-56
2023/08/14 10:56:06;;;;;;;0.00;0.00;;;;;;;28.11;47.29;100041.69;7334297;19;20014;-56
2023/08/14 10:58:31;;;;;;;0.00;0.00;;;;;;;28.29;47.05;100055.00;7355879;19;20013;-56
2023/08/14 11:01:05;;;;;;;0.05;0.05;;;;;;;28.50;47.06;100055.41;7356885;19;20018;-55
2023/08/14 11:03:58;;;;;;;0.08;0.08;;;;;;;28.68;47.67;100056.06;7352802;19;20722;-55
2023/08/14 11:06:26;;;;;;;0.10;0.10;;;;;;;28.67;45.65;100059.75;7252282;19;2004418;-56
2023/08/14 11:09:17;;;;;;;0.00;0.00;;;;;;;28.90;46.83;100059.09;7355228;19;20066;-57
2023/08/14 11:11:47;;;;;;;0.00;0.00;;;;;;;28.88;44.64;100058.41;7355359;19;20007;-56
2023/08/14 11:14:12;;;;;;;0.00;0.00;;;;;;;28.97;43.86;100052.06;7353891;19;20014;-55
2023/08/14 11:16:38;;;;;;;0.10;0.10;;;;;;;29.11;44.56;100047.84;7356453;19;20578;-56
2023/08/14 11:19:04;;;;;;;0.00;0.00;;;;;;;29.27;43.65;100049.66;7351756;19;20015;-57
2023/08/14 11:21:34;;;;;;;0.10;0.10;;;;;;;29.50;44.67;100045.22;7353126;19;20010;-56
2023/08/14 11:24:00;;;;;;;0.00;0.00;;;;;;;29.61;43.48;100046.75;7352452;19;20018;-56